Time;durP1;ratioP1;P1;durP2;ratioP2;P2;SDS_P1;SDS_P2;PMS_P1;PMS_P2;Temp;Humidity;BMP_temperature;BMP_pressure;BME280_temperature;BME280_humidity;BME280_pressure;Samples;Min_cycle;Max_cycle;Signal;HPM_P1;HPM_P2
2021/07/18 00:00:24;;;;;;;9.82;2.63;;;20.90;99.90;;;21.44;72.12;101463.88;5015588;28;20205;-75
2021/07/18 00:02:50;;;;;;;6.57;2.30;;;20.80;99.90;;;21.41;72.19;101456.09;5030887;28;20289;-77
2021/07/18 00:05:17;;;;;;;7.60;2.35;;;20.80;99.90;;;21.40;72.38;101462.38;5015068;28;20178;-75
2021/07/18 00:07:44;;;;;;;7.35;2.38;;;20.80;99.90;;;21.35;72.67;101456.50;5015143;28;20225;-75
2021/07/18 00:10:13;;;;;;;8.90;2.53;;;20.80;99.90;;;21.35;72.62;101456.50;5015911;28;20186;-75
2021/07/18 00:12:40;;;;;;;6.70;2.28;;;20.80;99.90;;;21.31;72.67;101455.03;4997431;28;20582;-76
2021/07/18 00:15:13;;;;;;;12.07;2.60;;;20.80;99.90;;;21.32;72.53;101451.41;5015294;28;20568;-75
2021/07/18 00:17:40;;;;;;;8.32;2.55;;;20.70;99.90;;;21.30;72.20;101461.31;4997817;28;20235;-75
2021/07/18 00:20:11;;;;;;;6.63;2.13;;;20.70;99.90;;;21.28;72.55;101460.59;5015168;28;20240;-75
2021/07/18 00:22:38;;;;;;;6.95;2.40;;;20.70;99.90;;;21.23;72.17;101454.72;5015451;28;20209;-76
2021/07/18 00:25:06;;;;;;;10.25;2.35;;;20.70;99.90;;;21.19;72.53;101453.22;5014568;28;20683;-75
2021/07/18 00:27:33;;;;;;;9.32;2.30;;;20.60;99.90;;;21.17;72.70;101456.97;5014768;28;20615;-75
2021/07/18 00:30:01;;;;;;;8.77;2.63;;;20.60;99.90;;;21.12;73.21;101455.47;5015007;28;20194;-77
2021/07/18 00:32:29;;;;;;;8.60;2.60;;;20.60;99.90;;;21.09;72.97;101454.81;5014837;28;20186;-76
2021/07/18 00:34:56;;;;;;;10.85;2.72;;;20.50;99.90;;;21.07;73.49;101462.06;4997244;28;20241;-77
2021/07/18 00:37:22;;;;;;;8.65;2.30;;;20.50;99.90;;;21.02;73.54;101456.19;5014562;28;20193;-76
2021/07/18 00:39:49;;;;;;;8.30;2.60;;;20.50;99.90;;;21.00;73.26;101460.78;5015095;28;20217;-75
2021/07/18 00:42:18;;;;;;;10.60;2.40;;;20.40;99.90;;;20.97;73.79;101459.19;5014834;28;20268;-77
2021/07/18 00:44:45;;;;;;;10.25;2.80;;;20.40;99.90;;;20.93;73.55;101454.16;4996763;28;20746;-75
2021/07/18 00:47:13;;;;;;;8.77;2.50;;;20.40;99.90;;;20.89;74.05;101447.31;5013851;28;20198;-74
2021/07/18 00:49:41;;;;;;;11.40;2.72;;;20.30;99.90;;;20.86;74.01;101443.06;5014107;28;20214;-74
2021/07/18 00:52:08;;;;;;;7.05;2.33;;;20.30;99.90;;;20.85;74.25;101448.47;5013923;28;20190;-75
2021/07/18 00:54:36;;;;;;;7.35;2.30;;;20.30;99.90;;;20.82;74.14;101448.69;5013912;28;20191;-75
2021/07/18 00:57:05;;;;;;;8.90;2.30;;;20.30;99.90;;;20.81;74.20;101444.34;4996797;28;20564;-75
2021/07/18 00:59:32;;;;;;;7.47;2.50;;;20.20;99.90;;;20.76;74.05;101446.47;5015861;28;20217;-74
2021/07/18 01:01:59;;;;;;;8.52;2.80;;;20.20;99.90;;;20.72;74.25;101440.50;4996308;28;20213;-74
2021/07/18 01:04:26;;;;;;;10.63;3.25;;;20.20;99.90;;;20.69;74.23;101442.50;5013930;28;20552;-75
2021/07/18 01:06:54;;;;;;;10.13;3.13;;;20.10;99.90;;;20.67;74.92;101449.72;4996959;28;20194;-75
2021/07/18 01:09:22;;;;;;;10.82;2.60;;;20.10;99.90;;;20.66;74.63;101450.69;5014291;28;20206;-76
2021/07/18 01:11:48;;;;;;;8.52;2.70;;;20.10;99.90;;;20.63;74.92;101456.25;5014097;28;20632;-75
2021/07/18 01:14:15;;;;;;;8.60;3.00;;;20.10;99.90;;;20.61;74.34;101455.47;4996380;28;20583;-76
2021/07/18 01:16:42;;;;;;;11.02;5.10;;;20.00;99.90;;;20.57;74.80;101448.66;4996162;28;20202;-75
2021/07/18 01:19:10;;;;;;;8.77;2.63;;;20.00;99.90;;;20.53;74.89;101455.16;5028751;28;20301;-75
2021/07/18 01:21:40;;;;;;;8.75;2.97;;;20.00;99.90;;;20.50;75.31;101455.31;4996317;28;20288;-75
2021/07/18 01:24:09;;;;;;;10.70;2.53;;;20.00;99.90;;;20.46;75.23;101448.53;4995882;28;20643;-73
2021/07/18 01:26:36;;;;;;;7.72;2.65;;;19.90;99.90;;;20.44;75.02;101445.97;5013308;28;20190;-76
2021/07/18 01:29:03;;;;;;;10.82;2.97;;;19.90;99.90;;;20.39;75.21;101447.22;4996008;28;20217;-75
2021/07/18 01:31:30;;;;;;;9.07;3.25;;;19.90;99.90;;;20.35;75.56;101448.38;4995761;28;20649;-76
2021/07/18 01:33:57;;;;;;;7.97;2.40;;;19.80;99.90;;;20.31;75.42;101450.38;4996291;28;20201;-76
2021/07/18 01:36:23;;;;;;;11.43;2.60;;;19.80;99.90;;;20.29;75.92;101451.44;5012981;28;20228;-76
2021/07/18 01:38:50;;;;;;;8.18;2.65;;;19.70;99.90;;;20.24;75.59;101450.88;4995655;28;20217;-75
2021/07/18 01:41:18;;;;;;;6.60;2.42;;;19.70;99.90;;;20.22;76.10;101447.47;5042461;28;20266;-75
2021/07/18 01:43:45;;;;;;;8.77;2.60;;;19.70;99.90;;;20.23;75.64;101457.19;5013428;28;20272;-75
2021/07/18 01:46:12;;;;;;;7.47;2.60;;;19.70;99.90;;;20.21;75.98;101456.41;5029093;28;20197;-73
2021/07/18 01:48:41;;;;;;;8.30;2.55;;;19.70;99.90;;;20.17;75.98;101460.22;5012797;28;20221;-76
2021/07/18 01:51:07;;;;;;;9.27;2.58;;;19.60;99.90;;;20.12;76.03;101455.19;5012717;28;20201;-76
2021/07/18 01:53:34;;;;;;;9.18;2.97;;;19.60;99.90;;;20.10;75.95;101462.38;5012441;28;20191;-76
2021/07/18 01:56:01;;;;;;;8.30;2.42;;;19.60;99.90;;;20.06;76.13;101454.72;4995023;28;20205;-76
2021/07/18 01:58:30;;;;;;;9.13;2.67;;;19.50;99.90;;;20.03;76.25;101469.03;4994823;28;20214;-75
2021/07/18 02:00:58;;;;;;;8.32;2.30;;;19.50;99.90;;;20.01;76.21;101470.13;5012597;28;20200;-75
2021/07/18 02:03:25;;;;;;;9.02;3.00;;;19.50;99.90;;;20.01;76.33;101470.13;5012624;28;20190;-76
2021/07/18 02:05:53;;;;;;;9.65;2.80;;;19.40;99.90;;;19.95;76.11;101464.25;5012347;28;20264;-76
2021/07/18 02:08:20;;;;;;;8.90;2.80;;;19.40;99.90;;;19.93;76.24;101460.81;5012115;28;20214;-74
2021/07/18 02:10:48;;;;;;;12.05;2.80;;;19.40;99.90;;;19.89;76.35;101469.09;5028129;28;20672;-76
2021/07/18 02:13:18;;;;;;;9.20;2.55;;;19.30;99.90;;;19.83;76.69;101466.81;4994849;28;20194;-76
2021/07/18 02:15:46;;;;;;;11.75;2.65;;;19.30;99.90;;;19.83;76.76;101462.38;4995052;28;20205;-76
2021/07/18 02:18:14;;;;;;;8.88;2.70;;;19.30;99.90;;;19.81;76.49;101460.75;5011856;28;20704;-77
2021/07/18 02:20:42;;;;;;;9.60;2.88;;;19.20;99.90;;;19.77;76.51;101462.75;5027546;28;20190;-76
2021/07/18 02:23:09;;;;;;;8.25;2.70;;;19.20;99.90;;;19.73;77.00;101463.91;5027446;28;20365;-75
2021/07/18 02:25:36;;;;;;;9.25;2.83;;;19.20;99.90;;;19.70;76.75;101461.44;4994477;28;20194;-76
2021/07/18 02:28:03;;;;;;;8.77;2.67;;;19.20;99.90;;;19.67;76.85;101458.97;4994386;28;20680;-76
2021/07/18 02:30:30;;;;;;;9.27;2.88;;;19.10;99.90;;;19.66;76.68;101462.56;4994585;28;20198;-76
2021/07/18 02:32:58;;;;;;;11.02;2.95;;;19.20;99.90;;;19.63;76.94;101456.59;5011871;28;20649;-76
2021/07/18 02:35:26;;;;;;;8.93;2.60;;;19.10;99.90;;;19.60;76.90;101457.66;5012132;28;20190;-76
2021/07/18 02:37:53;;;;;;;10.98;2.78;;;19.10;99.90;;;19.58;77.33;101459.56;5011945;28;20202;-76
2021/07/18 02:40:22;;;;;;;9.13;2.67;;;19.10;99.90;;;19.55;77.13;101462.41;4994624;28;20221;-74
2021/07/18 02:42:51;;;;;;;8.30;2.72;;;19.10;99.90;;;19.52;77.14;101459.09;4994298;28;20198;-76
2021/07/18 02:45:22;;;;;;;11.57;3.85;;;19.00;99.90;;;19.51;77.40;101462.66;4994199;28;20186;-75
2021/07/18 02:47:49;;;;;;;11.13;2.85;;;19.00;99.90;;;19.46;77.16;101459.44;5013888;28;20217;-76
2021/07/18 02:50:21;;;;;;;11.02;3.13;;;18.90;99.90;;;19.43;77.64;101459.66;5015731;28;20206;-77
2021/07/18 02:52:48;;;;;;;9.48;2.97;;;18.90;99.90;;;19.41;78.19;101457.09;5015769;28;20182;-76
2021/07/18 02:55:16;;;;;;;9.63;2.83;;;18.90;99.90;;;19.37;78.23;101462.69;5015643;28;20198;-76
2021/07/18 02:57:43;;;;;;;10.40;2.72;;;18.80;99.90;;;19.34;77.92;101455.75;4997672;28;20571;-77
2021/07/18 03:00:13;;;;;;;7.32;2.75;;;18.80;99.90;;;19.30;78.13;101456.91;4997565;28;20224;-75
2021/07/18 03:02:42;;;;;;;8.25;2.55;;;18.80;99.90;;;19.28;78.92;101453.47;4998010;28;20204;-75
2021/07/18 03:05:11;;;;;;;8.57;2.67;;;18.80;99.90;;;19.28;78.40;101445.50;4997472;28;20194;-76
2021/07/18 03:07:40;;;;;;;9.30;2.70;;;18.70;99.90;;;19.25;78.68;101445.69;4997495;28;20229;-75
2021/07/18 03:10:09;;;;;;;9.13;2.55;;;18.70;99.90;;;19.24;78.97;101441.31;5015146;28;20187;-75
2021/07/18 03:12:37;;;;;;;7.47;2.40;;;18.70;99.90;;;19.22;79.08;101437.91;5015389;28;20198;-75
2021/07/18 03:15:07;;;;;;;9.73;2.70;;;18.70;99.90;;;19.19;79.39;101440.75;5015485;28;20182;-75
2021/07/18 03:17:34;;;;;;;8.88;3.00;;;18.70;99.90;;;19.20;79.53;101447.78;5015295;28;20186;-75
2021/07/18 03:20:02;;;;;;;10.65;2.72;;;18.70;99.90;;;19.20;79.41;101438.94;5015258;28;20715;-76
2021/07/18 03:22:32;;;;;;;11.10;2.60;;;18.70;99.90;;;19.20;79.64;101438.94;4997643;28;20213;-75
2021/07/18 03:25:01;;;;;;;9.73;2.58;;;18.70;99.90;;;19.18;80.01;101441.69;4997520;28;20201;-75
2021/07/18 03:27:27;;;;;;;9.95;2.40;;;18.70;99.90;;;19.18;79.89;101441.69;5030176;28;20197;-76
2021/07/18 03:29:54;;;;;;;10.55;2.53;;;18.70;99.90;;;19.19;79.87;101446.03;5030581;28;20194;-76
2021/07/18 03:32:21;;;;;;;9.75;2.63;;;18.70;99.90;;;19.19;79.88;101446.03;4997382;28;20190;-76
2021/07/18 03:34:48;;;;;;;7.72;2.70;;;18.70;99.90;;;19.20;79.94;101446.91;5015330;28;20186;-76
2021/07/18 03:37:15;;;;;;;10.10;2.70;;;18.70;99.90;;;19.23;80.29;101452.03;5029864;28;20668;-76
2021/07/18 03:39:42;;;;;;;8.50;2.60;;;18.70;99.90;;;19.22;80.47;101451.19;4997299;28;20225;-76
2021/07/18 03:42:10;;;;;;;7.70;2.53;;;18.70;99.90;;;19.22;80.20;101445.03;4997317;28;20629;-76
2021/07/18 03:44:39;;;;;;;9.98;2.40;;;18.70;99.90;;;19.17;80.35;101436.50;5015021;28;20191;-76
2021/07/18 03:47:06;;;;;;;8.13;2.60;;;18.70;99.90;;;19.15;80.55;101439.25;4997070;28;20317;-75
2021/07/18 03:49:33;;;;;;;8.75;2.67;;;18.70;99.90;;;19.14;80.84;101450.78;4997053;28;20217;-75
2021/07/18 03:52:00;;;;;;;7.72;2.47;;;18.70;99.90;;;19.16;80.89;101453.34;4996855;28;20197;-75
2021/07/18 03:54:27;;;;;;;9.48;2.60;;;18.70;99.90;;;19.16;80.88;101443.59;5029689;28;20567;-76
2021/07/18 03:56:54;;;;;;;10.68;2.60;;;18.70;99.90;;;19.17;80.97;101449.75;5030802;28;20695;-76
2021/07/18 03:59:22;;;;;;;8.77;2.97;;;18.70;99.90;;;19.19;81.09;101456.66;5013348;28;20676;-76
2021/07/18 04:01:49;;;;;;;9.77;3.30;;;18.70;99.90;;;19.19;81.32;101455.84;5029469;28;20206;-76
2021/07/18 04:04:15;;;;;;;9.75;2.60;;;18.70;99.90;;;19.19;81.06;101456.66;5029108;28;20209;-75
2021/07/18 04:06:42;;;;;;;10.35;2.60;;;18.70;99.90;;;19.18;81.05;101454.97;5013946;28;20664;-76
2021/07/18 04:09:09;;;;;;;7.10;2.17;;;18.70;99.90;;;19.20;81.39;101458.41;5014265;28;20213;-76
2021/07/18 04:11:35;;;;;;;11.02;2.40;;;18.70;99.90;;;19.22;81.22;101456.50;4996632;28;20194;-76
2021/07/18 04:14:02;;;;;;;7.57;2.20;;;18.70;99.90;;;19.22;81.10;101453.84;4996503;28;20248;-75
2021/07/18 04:16:31;;;;;;;8.52;2.22;;;18.70;99.90;;;19.25;81.07;101455.44;4996289;28;20193;-76
2021/07/18 04:18:57;;;;;;;7.57;2.35;;;18.70;99.90;;;19.26;80.88;101458.00;4995957;28;20221;-75
2021/07/18 04:21:24;;;;;;;7.40;2.40;;;18.70;99.90;;;19.29;80.89;101465.81;4996511;28;20687;-75
2021/07/18 04:23:51;;;;;;;8.02;2.30;;;18.80;99.90;;;19.29;80.78;101470.25;5014186;28;20661;-75
2021/07/18 04:26:18;;;;;;;7.75;2.35;;;18.80;99.90;;;19.31;81.03;101465.72;4995926;28;20190;-75
2021/07/18 04:28:45;;;;;;;7.35;2.70;;;18.80;99.90;;;19.33;81.06;101470.00;5013671;28;20210;-76
2021/07/18 04:31:12;;;;;;;7.20;2.40;;;18.90;99.90;;;19.37;80.83;101471.53;4996056;28;20193;-76
2021/07/18 04:33:40;;;;;;;8.68;2.67;;;18.90;99.90;;;19.38;80.79;101478.53;5028816;28;20190;-75
2021/07/18 04:36:07;;;;;;;9.75;2.10;;;18.90;99.90;;;19.39;80.52;101482.03;4996013;28;20248;-75
2021/07/18 04:38:34;;;;;;;8.38;2.20;;;18.90;99.90;;;19.43;80.55;101487.06;4995974;28;20218;-76
2021/07/18 04:41:00;;;;;;;7.15;2.40;;;18.90;99.90;;;19.47;80.64;101487.72;5029136;28;20210;-75
2021/07/18 04:43:27;;;;;;;6.50;2.17;;;19.00;99.90;;;19.46;80.58;101480.69;4997212;28;20197;-75
2021/07/18 04:45:54;;;;;;;5.80;2.08;;;19.00;99.90;;;19.45;80.86;101486.97;5039540;28;20246;-76
2021/07/18 04:48:21;;;;;;;8.45;2.47;;;19.00;99.90;;;19.46;80.79;101484.22;5030802;28;20206;-75
2021/07/18 04:50:49;;;;;;;8.52;2.08;;;19.00;99.90;;;19.49;80.89;101486.69;5031336;28;20204;-75
2021/07/18 04:53:15;;;;;;;7.68;2.38;;;19.00;99.90;;;19.51;80.66;101482.13;5033347;28;20186;-75
2021/07/18 04:55:42;;;;;;;6.68;1.90;;;19.00;99.90;;;19.50;80.52;101483.09;5031182;28;20190;-77
2021/07/18 04:58:09;;;;;;;6.45;2.08;;;19.00;99.90;;;19.52;80.58;101483.00;5013152;28;20205;-75
2021/07/18 05:00:36;;;;;;;10.18;2.45;;;19.10;99.90;;;19.52;80.71;101489.16;5013158;28;20222;-73
2021/07/18 05:03:02;;;;;;;9.00;2.38;;;19.10;99.90;;;19.53;80.68;101488.19;5013310;28;20193;-76
2021/07/18 05:05:29;;;;;;;8.50;2.22;;;19.10;99.90;;;19.54;80.69;101481.09;4995763;28;20190;-76
2021/07/18 05:08:00;;;;;;;9.23;2.35;;;19.10;99.90;;;19.56;80.67;101487.13;4995283;28;20210;-76
2021/07/18 05:10:29;;;;;;;7.63;2.33;;;19.10;99.90;;;19.59;81.26;101492.28;4995240;28;20205;-76
2021/07/18 05:12:58;;;;;;;6.50;2.08;;;19.20;99.90;;;19.65;81.24;101498.06;5013131;28;20556;-75
2021/07/18 05:15:28;;;;;;;6.78;2.08;;;19.20;99.90;;;19.67;80.99;101485.56;5012918;28;20190;-76
2021/07/18 05:17:55;;;;;;;7.53;2.38;;;19.20;99.90;;;19.67;81.10;101490.00;5012645;28;20206;-76
2021/07/18 05:20:23;;;;;;;8.73;2.28;;;19.30;99.90;;;19.70;80.92;101490.66;5012765;28;20217;-76
2021/07/18 05:22:51;;;;;;;8.85;2.25;;;19.30;99.90;;;19.78;80.75;101487.50;4995251;28;20204;-76
2021/07/18 05:25:19;;;;;;;7.57;2.47;;;19.40;99.90;;;19.85;81.28;101479.06;4995363;28;20209;-76
2021/07/18 05:27:46;;;;;;;11.43;2.40;;;19.40;99.90;;;19.90;80.97;101482.28;5028767;28;20214;-76
2021/07/18 05:30:14;;;;;;;10.73;2.45;;;19.50;99.90;;;19.92;80.67;101480.41;4995155;28;20194;-77
2021/07/18 05:32:41;;;;;;;7.50;2.47;;;19.50;99.90;;;19.95;80.88;101480.19;4995142;28;20269;-77
2021/07/18 05:35:11;;;;;;;8.05;2.50;;;19.60;99.90;;;19.98;80.90;101490.63;5012884;28;20550;-76
2021/07/18 05:37:38;;;;;;;8.45;2.30;;;19.60;99.90;;;20.00;80.95;101485.19;4994961;28;20222;-76
2021/07/18 05:40:07;;;;;;;10.95;2.50;;;19.60;99.90;;;20.03;80.96;101492.13;5012677;28;20218;-75
2021/07/18 05:42:37;;;;;;;8.95;2.50;;;19.70;99.90;;;20.04;81.33;101499.16;4995025;28;20201;-75
2021/07/18 05:45:06;;;;;;;9.77;2.67;;;19.70;99.90;;;20.10;81.17;101494.28;5027871;28;20198;-76
2021/07/18 05:47:34;;;;;;;7.40;2.35;;;19.70;99.90;;;20.18;80.76;101496.50;5012425;28;20186;-76
2021/07/18 05:50:02;;;;;;;8.63;2.53;;;19.80;99.90;;;20.23;80.88;101494.41;4994741;28;20746;-76
2021/07/18 05:52:28;;;;;;;9.07;2.53;;;19.80;99.90;;;20.23;80.67;101487.25;4995048;28;20286;-76
2021/07/18 05:54:56;;;;;;;10.18;2.55;;;19.90;99.90;;;20.26;80.86;101488.88;4995039;28;20194;-76
2021/07/18 05:57:22;;;;;;;9.27;2.47;;;19.90;99.90;;;20.29;80.68;101494.00;5029923;28;20194;-76
2021/07/18 05:59:50;;;;;;;7.97;2.53;;;19.90;99.90;;;20.34;80.49;101495.41;5012389;28;20210;-76
2021/07/18 06:02:17;;;;;;;9.18;2.53;;;19.90;99.90;;;20.40;80.42;101494.13;4994882;28;20190;-76
2021/07/18 06:04:44;;;;;;;7.80;2.30;;;20.00;99.90;;;20.45;80.02;101494.69;5012027;28;20679;-76
2021/07/18 06:07:11;;;;;;;7.20;2.30;;;20.00;99.90;;;20.48;80.40;101498.00;5012267;28;20186;-75
2021/07/18 06:09:38;;;;;;;9.13;2.33;;;20.10;99.90;;;20.51;79.93;101502.28;4994435;28;20210;-76
2021/07/18 06:12:06;;;;;;;8.40;2.70;;;20.10;99.90;;;20.51;80.19;101495.13;5012182;28;20182;-77
2021/07/18 06:14:33;;;;;;;10.32;3.13;;;20.10;99.90;;;20.53;80.13;101490.56;4994205;28;20202;-76
2021/07/18 06:17:01;;;;;;;8.45;2.60;;;20.20;99.90;;;20.55;80.45;101486.00;5011648;28;20190;-76
2021/07/18 06:19:27;;;;;;;8.93;2.80;;;20.20;99.90;;;20.60;80.53;101491.00;5026912;28;20214;-77
2021/07/18 06:21:54;;;;;;;8.48;2.70;;;20.20;99.90;;;20.64;80.06;101489.84;4996696;28;20671;-76
2021/07/18 06:24:21;;;;;;;6.22;2.00;;;20.30;99.90;;;20.67;80.15;101500.28;5018207;28;20182;-76
2021/07/18 06:26:48;;;;;;;7.20;2.17;;;20.30;99.90;;;20.73;79.88;101502.56;5018220;28;20190;-75
2021/07/18 06:29:14;;;;;;;7.80;2.30;;;20.30;99.90;;;20.76;79.34;101500.53;5000463;28;20214;-75
2021/07/18 06:31:41;;;;;;;8.15;2.50;;;20.40;99.90;;;20.78;79.57;101503.09;5000296;28;20197;-76
2021/07/18 06:34:09;;;;;;;8.23;2.20;;;20.40;99.90;;;20.81;79.61;101502.88;5000726;28;20194;-75
2021/07/18 06:36:36;;;;;;;5.80;1.95;;;20.40;99.90;;;20.85;78.95;101504.38;5033618;28;20197;-75
2021/07/18 06:39:03;;;;;;;8.98;2.30;;;20.50;99.90;;;20.89;79.14;101505.88;5001098;28;20217;-76
2021/07/18 06:41:30;;;;;;;7.28;2.10;;;20.50;99.90;;;20.98;78.47;101518.63;5001332;28;20583;-76
2021/07/18 06:43:57;;;;;;;8.48;1.80;;;20.60;99.90;;;21.06;78.64;101509.16;5019297;28;20668;-76
2021/07/18 06:46:23;;;;;;;6.45;2.15;;;20.70;99.90;;;21.16;78.06;101504.03;5017863;28;20743;-76
2021/07/18 06:48:50;;;;;;;7.55;2.15;;;20.80;99.90;;;21.23;77.53;101510.66;5018304;28;20558;-76
2021/07/18 06:51:18;;;;;;;5.13;1.75;;;20.80;99.90;;;21.29;77.19;101499.56;5018372;28;20197;-76
2021/07/18 06:53:45;;;;;;;6.85;1.90;;;20.90;99.90;;;21.34;76.62;101504.56;5018177;28;20193;-76
2021/07/18 06:56:12;;;;;;;7.43;2.08;;;21.00;99.90;;;21.39;76.48;101497.09;5000183;28;20192;-73
2021/07/18 06:58:38;;;;;;;7.43;2.25;;;21.00;99.90;;;21.47;76.11;101508.94;5000464;28;20210;-76
2021/07/18 07:01:05;;;;;;;6.80;1.90;;;21.10;99.90;;;21.53;75.87;101513.84;5017807;28;20233;-76
2021/07/18 07:03:32;;;;;;;5.13;1.65;;;21.20;99.90;;;21.58;75.25;101511.72;5033268;28;20197;-76
2021/07/18 07:06:01;;;;;;;5.13;1.85;;;21.20;99.90;;;21.67;75.41;101510.22;5000255;28;20286;-76
2021/07/18 07:08:29;;;;;;;8.43;2.15;;;21.30;99.90;;;21.73;75.32;101521.31;4999943;28;20220;-76
2021/07/18 07:10:56;;;;;;;10.88;2.40;;;21.40;99.90;;;21.79;75.40;101515.56;5002415;28;20194;-76
2021/07/18 07:13:23;;;;;;;7.43;2.00;;;21.50;99.90;;;21.86;75.01;101515.97;5019139;28;20193;-75
2021/07/18 07:15:50;;;;;;;6.53;1.80;;;21.60;99.90;;;21.94;74.64;101519.78;5000537;28;20193;-74
2021/07/18 07:18:17;;;;;;;7.13;2.25;;;21.70;99.90;;;22.04;74.35;101515.50;5001330;28;20210;-76
2021/07/18 07:20:43;;;;;;;8.45;2.40;;;21.80;99.90;;;22.12;74.10;101515.78;5019763;28;20206;-76
2021/07/18 07:23:10;;;;;;;6.93;2.50;;;22.00;99.90;;;22.21;73.71;101515.13;5018115;28;20186;-77
2021/07/18 07:25:38;;;;;;;7.70;2.00;;;22.30;99.90;;;22.24;73.29;101512.22;5002291;28;20194;-76
2021/07/18 07:28:05;;;;;;;6.57;1.88;;;22.50;99.90;;;22.26;73.20;101518.31;5016552;28;20217;-76
2021/07/18 07:30:34;;;;;;;6.88;2.20;;;22.50;99.90;;;22.28;72.84;101507.53;5039501;28;20201;-77
2021/07/18 07:33:01;;;;;;;8.82;2.00;;;22.50;99.90;;;22.34;72.58;101505.25;5006040;28;20198;-76
2021/07/18 07:35:28;;;;;;;7.85;2.60;;;22.50;99.90;;;22.40;72.60;101495.97;5020174;28;20190;-76
2021/07/18 07:37:54;;;;;;;8.15;2.50;;;22.40;99.90;;;22.44;72.07;101502.75;5020808;28;20217;-76
2021/07/18 07:40:22;;;;;;;5.88;2.10;;;22.50;99.90;;;22.47;71.83;101494.53;5044089;28;20220;-77
2021/07/18 07:42:52;;;;;;;8.90;2.20;;;22.50;99.90;;;22.50;71.32;101498.78;5018293;28;20190;-77
2021/07/18 07:45:19;;;;;;;6.15;1.90;;;22.50;99.90;;;22.55;70.53;101491.31;5005135;28;20202;-76
2021/07/18 07:47:46;;;;;;;7.38;2.30;;;22.50;99.90;;;22.57;69.78;101492.06;5005173;28;20214;-76
2021/07/18 07:50:14;;;;;;;6.75;2.00;;;22.50;99.90;;;22.61;70.15;101493.50;5001160;28;20194;-76
2021/07/18 07:52:42;;;;;;;5.43;1.85;;;22.50;99.90;;;22.67;69.87;101493.94;5036504;28;20190;-76
2021/07/18 07:55:12;;;;;;;6.18;2.25;;;22.60;99.90;;;22.74;nan;101497.81;5040097;28;20204;-76
2021/07/18 07:57:40;;;;;;;4.80;1.70;;;22.70;99.90;;;22.80;69.42;101500.03;5033386;28;20182;-76
2021/07/18 08:00:13;;;;;;;7.03;2.35;;;22.70;99.90;;;22.87;68.63;101500.44;5015257;28;20205;-77
2021/07/18 08:02:42;;;;;;;7.60;2.40;;;22.70;99.90;;;22.88;68.00;101502.97;5017992;28;20202;-76
2021/07/18 08:05:10;;;;;;;6.55;1.67;;;22.80;99.90;;;22.93;67.74;101497.28;4999939;28;20577;-77
2021/07/18 08:07:38;;;;;;;7.72;2.08;;;22.80;99.90;;;23.00;67.21;101499.38;4997562;28;20194;-78
2021/07/18 08:10:08;;;;;;;6.50;2.10;;;22.90;99.90;;;23.10;67.49;101502.19;4997679;28;20220;-76
2021/07/18 08:12:36;;;;;;;5.15;1.95;;;23.00;99.90;;;23.17;66.86;101490.94;5015690;28;20190;-77
2021/07/18 08:15:03;;;;;;;8.32;2.05;;;23.10;99.90;;;23.27;66.75;101496.44;5014295;28;20201;-77
2021/07/18 08:17:31;;;;;;;6.72;2.22;;;23.20;99.90;;;23.32;66.99;101499.59;4996526;28;20190;-76
2021/07/18 08:19:58;;;;;;;7.90;1.90;;;23.20;99.90;;;23.34;66.68;101506.50;4996514;28;20194;-77
2021/07/18 08:22:25;;;;;;;5.25;1.80;;;23.30;99.90;;;23.37;66.19;101505.44;4996631;28;20560;-76
2021/07/18 08:24:51;;;;;;;6.45;1.90;;;23.40;99.90;;;23.39;65.31;101508.84;5013922;28;20186;-77
2021/07/18 08:27:18;;;;;;;5.72;1.88;;;23.40;99.90;;;23.44;65.33;101506.66;4996550;28;20660;-77
2021/07/18 08:29:45;;;;;;;8.75;2.33;;;23.50;99.90;;;23.52;65.74;101501.56;5014126;28;20221;-74
2021/07/18 08:32:12;;;;;;;9.05;2.45;;;23.50;99.90;;;23.59;65.55;101498.25;4996599;28;20198;-77
2021/07/18 08:34:40;;;;;;;6.30;1.90;;;23.60;99.90;;;23.63;65.23;101504.22;5014280;28;20189;-75
2021/07/18 08:37:07;;;;;;;7.25;1.90;;;23.70;99.90;;;23.65;65.64;101499.63;4996725;28;20198;-76
2021/07/18 08:39:33;;;;;;;6.53;2.13;;;23.70;99.90;;;23.66;65.14;101498.66;5014849;28;20210;-77
2021/07/18 08:42:02;;;;;;;8.13;2.30;;;23.70;99.90;;;23.71;65.09;101492.94;5016194;28;20220;-76
2021/07/18 08:44:29;;;;;;;8.05;2.10;;;23.80;99.90;;;23.75;64.58;101491.69;5014546;28;20194;-76
2021/07/18 08:46:56;;;;;;;7.30;2.47;;;23.80;99.90;;;23.83;64.45;101494.63;4997435;28;20194;-76
2021/07/18 08:49:23;;;;;;;4.95;1.85;;;23.90;99.90;;;23.91;64.70;101495.72;5029809;28;20218;-77
2021/07/18 08:51:53;;;;;;;7.80;2.35;;;24.00;99.90;;;23.96;64.28;101493.53;5029048;28;20201;-76
2021/07/18 08:54:23;;;;;;;6.90;2.20;;;24.00;99.90;;;23.99;63.77;101493.31;5013159;28;20232;-76
2021/07/18 08:56:52;;;;;;;9.90;2.13;;;24.10;99.90;;;23.97;63.12;101491.69;4995697;28;20204;-77
2021/07/18 08:59:19;;;;;;;6.25;2.03;;;24.10;99.90;;;24.00;63.25;101488.78;5013458;28;20241;-75
2021/07/18 09:01:46;;;;;;;6.78;1.90;;;24.00;99.90;;;24.05;63.31;101498.16;5013819;28;20220;-76
2021/07/18 09:04:13;;;;;;;7.15;2.10;;;24.10;99.90;;;24.03;62.60;101496.59;4996616;28;20196;-76
2021/07/18 09:06:42;;;;;;;6.72;2.53;;;24.10;99.90;;;24.09;62.62;101494.25;4996778;28;20217;-77
2021/07/18 09:09:15;;;;;;;6.80;2.70;;;24.10;99.90;;;24.17;62.75;101494.47;4997477;28;20695;-77
2021/07/18 09:11:43;;;;;;;7.05;2.47;;;24.20;99.90;;;24.21;62.48;101492.41;5015860;28;20185;-77
2021/07/18 09:14:12;;;;;;;7.97;2.28;;;24.30;99.90;;;24.27;62.37;101490.06;5013518;28;20197;-77
2021/07/18 09:16:41;;;;;;;6.28;2.05;;;24.30;99.90;;;24.30;61.75;101503.19;5012987;28;20185;-76
2021/07/18 09:19:21;;;;;;;7.25;2.10;;;24.30;99.90;;;24.31;61.59;101483.50;5013412;28;20202;-77
2021/07/18 09:22:07;;;;;;;4.95;1.90;;;24.30;99.90;;;24.36;61.73;101477.75;5028330;28;20315;-76
2021/07/18 09:24:39;;;;;;;9.45;1.98;;;24.40;99.90;;;24.39;62.23;101481.03;4995417;28;20198;-76
2021/07/18 09:27:19;;;;;;;6.93;2.30;;;24.50;99.90;;;24.48;61.96;101485.63;5013343;28;20174;-77
2021/07/18 09:29:50;;;;;;;7.93;2.20;;;24.50;99.90;;;24.53;61.77;101479.91;5013291;28;20692;-77
2021/07/18 09:32:20;;;;;;;5.47;2.03;;;24.60;99.90;;;24.60;62.19;101484.59;4995526;28;20205;-76
2021/07/18 09:34:49;;;;;;;6.13;1.98;;;24.70;99.90;;;24.67;61.78;101491.16;4994998;28;20197;-75
2021/07/18 09:37:22;;;;;;;7.00;2.10;;;24.80;99.90;;;24.70;61.75;101482.88;4995844;28;20569;-77
2021/07/18 09:39:57;;;;;;;5.82;1.80;;;24.80;99.90;;;24.73;61.42;101481.78;5013666;28;20292;-77
2021/07/18 09:42:35;;;;;;;5.85;2.10;;;24.80;99.90;;;24.73;60.90;101485.28;5013262;28;20300;-76
2021/07/18 09:45:07;;;;;;;6.47;2.42;;;24.80;99.90;;;24.73;61.02;101479.94;5013979;28;20170;-77
2021/07/18 09:47:34;;;;;;;6.53;2.10;;;24.90;99.90;;;24.77;61.10;101479.69;5013230;28;20185;-77
2021/07/18 09:50:01;;;;;;;7.75;1.88;;;24.90;99.90;;;24.84;61.17;101471.00;5013686;28;20197;-77
2021/07/18 09:52:29;;;;;;;6.97;1.75;;;25.00;99.90;;;24.94;61.35;101481.78;4995971;28;20201;-76
2021/07/18 09:54:59;;;;;;;6.25;1.65;;;25.00;99.90;;;24.97;61.12;101476.19;5013376;28;20729;-77
2021/07/18 09:57:40;;;;;;;7.80;2.13;;;25.10;99.90;;;24.99;60.41;101474.19;4996164;28;20200;-76
2021/07/18 10:00:12;;;;;;;7.32;1.83;;;25.10;99.90;;;25.01;60.95;101477.59;5014957;28;20200;-77
2021/07/18 10:02:42;;;;;;;5.75;1.80;;;25.10;99.90;;;25.06;60.84;101478.91;5015130;28;20312;-77
2021/07/18 10:05:17;;;;;;;7.18;2.00;;;25.20;99.90;;;25.12;60.77;101472.19;4998561;28;20200;-76
2021/07/18 10:07:43;;;;;;;6.85;2.25;;;25.20;99.90;;;25.16;60.84;101476.28;5016312;28;20189;-77
2021/07/18 10:10:12;;;;;;;5.53;2.15;;;25.20;99.90;;;25.21;60.60;101463.34;5016895;28;20874;-75
2021/07/18 10:12:39;;;;;;;6.00;2.10;;;25.20;99.90;;;25.27;60.50;101468.19;5016184;28;20213;-77
2021/07/18 10:15:08;;;;;;;9.93;2.80;;;25.40;99.90;;;25.32;60.67;101469.47;5016641;28;20729;-77